Time;durP1;ratioP1;P1;durP2;ratioP2;P2;SDS_P1;SDS_P2;PMS_P1;PMS_P2;Temp;Humidity;BMP_temperature;BMP_pressure;BME280_temperature;BME280_humidity;BME280_pressure;Samples;Min_cycle;Max_cycle;Signal;HPM_P1;HPM_P2
2021/08/06 00:01:19;;;;;;;2.13;0.85;;;18.90;99.90;;;;;;6295500;22;20930;-74
2021/08/06 00:03:45;;;;;;;1.73;0.50;;;18.70;99.90;;;;;;6294349;22;20071;-74
2021/08/06 00:06:11;;;;;;;7.63;0.80;;;18.50;99.90;;;;;;6297192;22;20007;-75
2021/08/06 00:08:37;;;;;;;5.40;1.08;;;18.50;99.90;;;;;;6295698;22;19995;-74
2021/08/06 00:11:03;;;;;;;2.88;0.60;;;18.40;99.90;;;;;;6295765;22;19999;-74
2021/08/06 00:13:30;;;;;;;8.88;1.50;;;18.40;99.90;;;;;;6295314;22;20003;-74
2021/08/06 00:15:59;;;;;;;3.40;0.70;;;18.30;99.90;;;;;;6294432;22;20413;-74
2021/08/06 00:18:25;;;;;;;3.38;1.02;;;18.40;99.90;;;;;;6294330;22;20443;-74
2021/08/06 00:20:52;;;;;;;3.38;0.68;;;18.40;99.90;;;;;;6293644;22;20013;-74
2021/08/06 00:23:18;;;;;;;2.20;1.08;;;18.30;99.90;;;;;;6296307;22;20015;-74
2021/08/06 00:25:44;;;;;;;3.30;0.90;;;18.40;99.90;;;;;;6301656;22;20056;-74
2021/08/06 00:28:10;;;;;;;2.25;0.52;;;18.30;99.90;;;;;;6306712;22;20003;-74
2021/08/06 00:30:36;;;;;;;4.15;1.20;;;18.30;99.90;;;;;;6307317;22;20010;-74
2021/08/06 00:33:03;;;;;;;3.55;0.70;;;18.20;99.90;;;;;;6306633;22;20325;-74
2021/08/06 00:35:28;;;;;;;1.95;0.57;;;18.20;99.90;;;;;;6307360;22;19999;-74
2021/08/06 00:37:54;;;;;;;2.08;0.52;;;18.10;99.90;;;;;;6306787;22;20108;-74
2021/08/06 00:40:24;;;;;;;3.30;0.88;;;18.10;99.90;;;;;;6307336;22;20099;-74
2021/08/06 00:42:51;;;;;;;2.15;1.00;;;18.10;99.90;;;;;;6307456;22;20012;-74
2021/08/06 00:45:18;;;;;;;4.20;0.70;;;18.20;99.90;;;;;;6306842;22;20052;-74
2021/08/06 00:47:44;;;;;;;5.25;0.75;;;18.10;99.90;;;;;;6307058;22;20444;-74
2021/08/06 00:50:11;;;;;;;2.03;0.85;;;18.00;99.90;;;;;;6307390;22;20014;-74
2021/08/06 00:52:38;;;;;;;2.35;1.05;;;17.90;99.90;;;;;;6306313;22;20000;-74
2021/08/06 00:55:05;;;;;;;1.50;0.40;;;17.90;99.90;;;;;;6307330;22;20007;-74
2021/08/06 00:57:32;;;;;;;3.25;0.75;;;18.00;99.90;;;;;;6307104;22;19999;-74
2021/08/06 00:59:57;;;;;;;2.63;0.70;;;18.20;99.90;;;;;;6307286;22;20003;-74
2021/08/06 01:02:25;;;;;;;1.90;0.68;;;18.10;99.90;;;;;;6279191;22;20447;-74
2021/08/06 01:05:02;;;;;;;2.63;0.60;;;18.10;99.90;;;;;;6305905;22;20165;-74
2021/08/06 01:08:08;;;;;;;3.88;0.80;;;18.00;99.90;;;;;;6306313;22;20057;-74
2021/08/06 01:10:43;;;;;;;1.05;0.45;;;18.00;99.90;;;;;;6306845;22;20010;-74
2021/08/06 01:13:14;;;;;;;2.72;1.00;;;17.90;99.90;;;;;;6306567;22;20423;-74
2021/08/06 01:15:42;;;;;;;0.55;0.38;;;17.70;99.90;;;;;;6306741;22;20315;-74
2021/08/06 01:18:12;;;;;;;1.77;0.70;;;17.80;99.90;;;;;;6307097;22;20003;-74
2021/08/06 01:20:42;;;;;;;3.72;0.70;;;18.00;99.90;;;;;;6306920;22;20027;-74
2021/08/06 01:23:21;;;;;;;3.72;0.70;;;18.00;99.90;;;;;;6305597;22;20429;-74
2021/08/06 01:25:51;;;;;;;3.60;0.80;;;18.10;99.90;;;;;;6306861;22;20060;-74
2021/08/06 01:28:21;;;;;;;4.88;0.70;;;18.10;99.90;;;;;;6306153;22;20076;-74
2021/08/06 01:30:47;;;;;;;2.78;0.70;;;18.10;99.90;;;;;;6279253;22;20003;-74
2021/08/06 01:33:15;;;;;;;1.73;0.75;;;18.20;99.90;;;;;;6306348;22;20009;-74
2021/08/06 01:35:40;;;;;;;1.00;0.45;;;18.20;99.90;;;;;;6306861;22;19995;-74
2021/08/06 01:38:07;;;;;;;4.35;0.80;;;18.20;99.90;;;;;;6306643;22;20007;-74
2021/08/06 01:40:41;;;;;;;2.90;0.70;;;18.20;99.90;;;;;;6306494;22;20053;-74
2021/08/06 01:43:17;;;;;;;;;;;18.00;99.90;;;;;;6306183;22;20011;-74
2021/08/06 01:45:48;;;;;;;2.88;0.65;;;17.80;99.90;;;;;;6306061;22;20279;-74
2021/08/06 01:48:17;;;;;;;1.83;0.90;;;17.80;99.90;;;;;;6306317;22;20058;-74
2021/08/06 01:50:45;;;;;;;3.60;1.00;;;17.70;99.90;;;;;;6306315;22;20007;-74
2021/08/06 01:53:16;;;;;;;1.23;0.60;;;17.70;99.90;;;;;;6306208;22;20482;-73
2021/08/06 01:55:48;;;;;;;5.18;0.80;;;17.90;99.90;;;;;;6306637;22;20101;-73
2021/08/06 01:58:13;;;;;;;4.28;1.05;;;17.90;99.90;;;;;;6305398;22;20010;-74
2021/08/06 02:00:42;;;;;;;2.35;0.82;;;17.60;99.90;;;;;;6306267;22;20070;-74
2021/08/06 02:03:09;;;;;;;3.78;0.70;;;17.30;99.90;;;;;;6305942;22;20098;-73
2021/08/06 02:05:35;;;;;;;3.65;0.82;;;17.20;99.90;;;;;;6306414;22;20004;-74
2021/08/06 02:08:04;;;;;;;3.80;1.00;;;17.00;99.90;;;;;;6306023;22;19999;-74
2021/08/06 02:10:30;;;;;;;3.15;0.90;;;16.90;99.90;;;;;;6306422;22;20003;-74
2021/08/06 02:12:57;;;;;;;2.10;0.50;;;17.00;99.90;;;;;;6306643;22;20386;-74
2021/08/06 02:15:22;;;;;;;1.60;0.70;;;17.00;99.90;;;;;;6306036;22;20003;-74
2021/08/06 02:17:51;;;;;;;2.15;1.13;;;17.10;99.90;;;;;;6305172;22;20479;-73
2021/08/06 02:20:18;;;;;;;10.65;1.05;;;17.40;99.90;;;;;;6304795;22;20039;-74
2021/08/06 02:22:45;;;;;;;2.15;0.80;;;17.50;99.90;;;;;;6304355;22;20057;-74
2021/08/06 02:25:14;;;;;;;4.30;1.25;;;17.20;99.90;;;;;;6304643;22;20010;-74
2021/08/06 02:27:41;;;;;;;5.15;0.77;;;17.20;99.90;;;;;;6305710;22;20034;-73
2021/08/06 02:30:07;;;;;;;3.90;0.50;;;17.30;99.90;;;;;;6305798;22;19999;-74
2021/08/06 02:32:34;;;;;;;2.50;0.68;;;17.40;99.90;;;;;;6306184;22;20053;-73
2021/08/06 02:35:00;;;;;;;6.63;1.45;;;17.50;99.90;;;;;;6305594;22;20070;-73
2021/08/06 02:37:26;;;;;;;4.20;0.70;;;17.50;99.90;;;;;;6306434;22;19999;-73
2021/08/06 02:39:51;;;;;;;3.33;0.93;;;17.40;99.90;;;;;;6278231;22;20337;-73
2021/08/06 02:42:17;;;;;;;4.30;0.82;;;17.00;99.90;;;;;;6305222;22;20029;-73
2021/08/06 02:44:43;;;;;;;1.40;0.47;;;16.90;99.90;;;;;;6305173;22;20042;-73
2021/08/06 02:47:10;;;;;;;1.80;0.70;;;16.80;99.90;;;;;;6306203;22;20003;-73
2021/08/06 02:49:36;;;;;;;6.20;0.73;;;16.90;99.90;;;;;;6305416;22;20026;-73
2021/08/06 02:52:05;;;;;;;1.90;0.70;;;16.90;99.90;;;;;;6305683;22;20418;-73
2021/08/06 02:54:32;;;;;;;2.05;0.80;;;17.00;99.90;;;;;;6305459;22;19999;-73
2021/08/06 02:56:58;;;;;;;2.10;0.80;;;17.00;99.90;;;;;;6306126;22;20003;-73
2021/08/06 02:59:24;;;;;;;2.75;0.70;;;16.90;99.90;;;;;;6305355;22;20466;-73
2021/08/06 03:01:49;;;;;;;2.20;0.93;;;16.90;99.90;;;;;;6304801;22;20026;-73
2021/08/06 03:04:15;;;;;;;2.45;0.80;;;16.80;99.90;;;;;;6296717;22;20039;-73
2021/08/06 03:06:41;;;;;;;3.55;0.77;;;16.70;99.90;;;;;;6296006;22;20091;-74
2021/08/06 03:09:06;;;;;;;3.80;0.90;;;16.80;99.90;;;;;;6296071;22;20000;-73
2021/08/06 03:11:32;;;;;;;3.17;0.90;;;16.70;99.90;;;;;;6296385;22;20070;-73
2021/08/06 03:13:58;;;;;;;6.15;0.75;;;16.70;99.90;;;;;;6295844;22;20009;-73
2021/08/06 03:16:23;;;;;;;1.92;1.02;;;16.70;99.90;;;;;;6296701;22;20015;-74
2021/08/06 03:18:49;;;;;;;2.00;0.55;;;16.50;99.90;;;;;;6268722;22;19999;-74
2021/08/06 03:21:15;;;;;;;1.65;0.60;;;16.40;99.90;;;;;;6296874;22;20074;-74
2021/08/06 03:23:41;;;;;;;5.93;1.60;;;16.30;99.90;;;;;;6296033;22;20015;-73
2021/08/06 03:26:06;;;;;;;5.18;0.80;;;16.30;99.90;;;;;;6295759;22;20011;-73
2021/08/06 03:28:32;;;;;;;1.15;0.52;;;16.50;99.90;;;;;;6295564;22;20006;-73
2021/08/06 03:30:58;;;;;;;4.22;0.90;;;16.70;99.90;;;;;;6298239;22;20010;-73
2021/08/06 03:33:24;;;;;;;3.33;0.90;;;16.60;99.90;;;;;;6298690;22;20061;-74
2021/08/06 03:35:49;;;;;;;1.75;0.80;;;16.70;99.90;;;;;;6298368;22;19999;-74
2021/08/06 03:38:20;;;;;;;2.55;1.00;;;16.70;99.90;;;;;;6297952;22;20003;-73
2021/08/06 03:40:47;;;;;;;1.70;0.73;;;16.80;99.90;;;;;;6298962;22;20862;-74
2021/08/06 03:43:13;;;;;;;2.58;0.80;;;16.90;99.90;;;;;;6298701;22;20011;-74
2021/08/06 03:45:39;;;;;;;5.90;1.10;;;17.10;99.90;;;;;;6297981;22;20003;-74
2021/08/06 03:48:05;;;;;;;2.55;1.33;;;17.10;99.90;;;;;;6298049;22;20052;-73
2021/08/06 03:50:31;;;;;;;2.08;0.80;;;17.10;99.90;;;;;;6298585;22;20088;-73
2021/08/06 03:52:57;;;;;;;1.42;0.63;;;17.00;99.90;;;;;;6298621;22;20442;-74
2021/08/06 03:55:22;;;;;;;2.22;0.80;;;16.90;99.90;;;;;;6297602;22;20368;-73
2021/08/06 03:57:53;;;;;;;4.35;0.82;;;16.60;99.90;;;;;;6297664;22;20698;-73
2021/08/06 04:00:20;;;;;;;2.35;0.85;;;16.30;99.90;;;;;;6298321;22;20010;-74
2021/08/06 04:02:46;;;;;;;3.88;1.10;;;16.20;99.90;;;;;;6298134;22;20003;-73
2021/08/06 04:05:12;;;;;;;3.10;0.40;;;16.20;99.90;;;;;;6297572;22;20035;-73
2021/08/06 04:07:42;;;;;;;3.20;1.17;;;16.30;99.90;;;;;;6297170;22;20056;-73
2021/08/06 04:10:09;;;;;;;4.38;0.95;;;16.40;99.90;;;;;;6298510;22;20476;-74
2021/08/06 04:12:35;;;;;;;2.35;0.93;;;16.30;99.90;;;;;;6298316;22;19999;-73
2021/08/06 04:15:01;;;;;;;3.45;0.80;;;16.50;99.90;;;;;;6297691;22;20003;-73
2021/08/06 04:17:27;;;;;;;2.50;0.80;;;16.50;99.90;;;;;;6296430;22;20076;-74
2021/08/06 04:19:53;;;;;;;1.67;0.75;;;16.40;99.90;;;;;;6298101;22;20019;-74
2021/08/06 04:22:18;;;;;;;4.65;1.13;;;16.50;99.90;;;;;;6296891;22;20011;-73
2021/08/06 04:24:44;;;;;;;2.22;0.68;;;16.40;99.90;;;;;;6296474;22;20032;-73
2021/08/06 04:27:09;;;;;;;6.93;1.00;;;16.30;99.90;;;;;;6297363;22;20089;-73
2021/08/06 04:29:35;;;;;;;2.60;0.80;;;16.30;99.90;;;;;;6298084;22;20000;-73
2021/08/06 04:32:01;;;;;;;5.13;1.05;;;16.20;99.90;;;;;;6298037;22;20003;-73
2021/08/06 04:34:27;;;;;;;2.30;0.85;;;16.00;99.90;;;;;;6297857;22;20061;-73
2021/08/06 04:36:53;;;;;;;2.63;0.88;;;16.10;99.90;;;;;;6296669;22;19999;-73
2021/08/06 04:39:20;;;;;;;5.43;1.17;;;16.20;99.90;;;;;;6298322;22;19995;-74
2021/08/06 04:41:46;;;;;;;8.05;1.52;;;16.30;99.90;;;;;;6297411;22;20003;-73
2021/08/06 04:44:12;;;;;;;2.58;0.70;;;16.40;99.90;;;;;;6297964;22;20378;-74
2021/08/06 04:46:37;;;;;;;2.53;0.80;;;16.30;99.90;;;;;;6296080;22;20033;-73
2021/08/06 04:49:03;;;;;;;3.30;0.85;;;16.40;99.90;;;;;;6298277;22;20027;-74
2021/08/06 04:51:29;;;;;;;2.15;0.77;;;16.20;99.90;;;;;;6297909;22;20444;-73
2021/08/06 04:53:54;;;;;;;3.42;0.73;;;16.10;99.90;;;;;;6297876;22;20000;-74
2021/08/06 04:56:20;;;;;;;4.65;0.82;;;15.90;99.90;;;;;;6296826;22;20846;-73
2021/08/06 04:58:46;;;;;;;4.28;0.93;;;16.00;99.90;;;;;;6297429;22;20064;-73
2021/08/06 05:01:11;;;;;;;3.20;1.23;;;16.00;99.90;;;;;;6296927;22;20037;-73
2021/08/06 05:03:37;;;;;;;5.68;0.70;;;15.90;99.90;;;;;;6297527;22;20580;-73
2021/08/06 05:06:03;;;;;;;5.10;1.52;;;15.90;99.90;;;;;;6296852;22;20003;-73
2021/08/06 05:08:29;;;;;;;3.13;0.77;;;15.70;99.90;;;;;;6297516;22;20011;-73
2021/08/06 05:10:54;;;;;;;2.20;0.90;;;15.70;99.90;;;;;;6297096;22;20372;-73
2021/08/06 05:13:20;;;;;;;2.22;0.85;;;15.90;99.90;;;;;;6297941;22;20472;-73
2021/08/06 05:15:46;;;;;;;2.97;0.95;;;16.10;99.90;;;;;;6297203;22;20420;-73
2021/08/06 05:18:12;;;;;;;2.90;0.85;;;16.10;99.90;;;;;;6269845;22;20074;-74
2021/08/06 05:20:37;;;;;;;2.42;0.82;;;16.20;99.90;;;;;;6297201;22;20006;-73
2021/08/06 05:23:04;;;;;;;1.67;0.57;;;16.40;99.90;;;;;;6297239;22;20015;-73
2021/08/06 05:25:30;;;;;;;6.72;1.00;;;16.50;99.90;;;;;;6296942;22;20007;-73
2021/08/06 05:27:56;;;;;;;3.75;0.93;;;16.30;99.90;;;;;;6296901;22;20003;-73
2021/08/06 05:30:22;;;;;;;2.60;0.77;;;16.10;99.90;;;;;;6297324;22;19999;-73
2021/08/06 05:32:49;;;;;;;4.43;1.30;;;15.80;99.90;;;;;;6297613;22;20010;-73
2021/08/06 05:35:16;;;;;;;5.00;1.10;;;15.80;99.90;;;;;;6297659;22;20546;-73
2021/08/06 05:37:41;;;;;;;4.90;0.70;;;15.90;99.90;;;;;;6296513;22;20007;-73
2021/08/06 05:40:07;;;;;;;6.78;0.90;;;15.80;99.90;;;;;;6297074;22;20023;-73
2021/08/06 05:42:33;;;;;;;4.15;0.90;;;15.90;99.90;;;;;;6297138;22;20022;-73
2021/08/06 05:44:59;;;;;;;3.15;0.90;;;15.90;99.90;;;;;;6297622;22;20568;-73
2021/08/06 05:47:25;;;;;;;2.13;0.60;;;16.20;99.90;;;;;;6296016;22;20425;-74
2021/08/06 05:49:50;;;;;;;1.98;1.05;;;16.20;99.90;;;;;;6296721;22;20027;-73
2021/08/06 05:52:16;;;;;;;2.72;0.63;;;16.20;99.90;;;;;;6297155;22;20015;-73
2021/08/06 05:54:42;;;;;;;4.50;1.52;;;16.20;99.90;;;;;;6296572;22;20013;-73
2021/08/06 05:57:07;;;;;;;4.00;0.95;;;16.30;99.90;;;;;;6296057;22;20003;-73
2021/08/06 05:59:33;;;;;;;4.93;0.88;;;16.50;99.90;;;;;;6297093;22;20061;-73
2021/08/06 06:01:59;;;;;;;4.43;0.80;;;16.40;99.90;;;;;;6297247;22;20090;-73
2021/08/06 06:04:24;;;;;;;4.38;0.90;;;16.30;99.90;;;;;;6296842;22;20019;-73
2021/08/06 06:06:50;;;;;;;6.20;0.77;;;16.20;99.90;;;;;;6296636;22;20070;-73
2021/08/06 06:09:16;;;;;;;2.35;1.00;;;16.30;99.90;;;;;;6297666;22;20027;-73
2021/08/06 06:11:41;;;;;;;13.52;2.40;;;16.50;99.90;;;;;;6296334;22;20497;-73
2021/08/06 06:14:07;;;;;;;3.05;1.02;;;16.50;99.90;;;;;;6297204;22;20387;-74
2021/08/06 06:16:33;;;;;;;1.60;0.80;;;16.60;99.90;;;;;;6297141;22;20082;-74
2021/08/06 06:18:58;;;;;;;3.15;1.15;;;16.80;99.90;;;;;;6295051;22;20034;-74
2021/08/06 06:21:24;;;;;;;2.47;0.77;;;17.00;99.90;;;;;;6296907;22;20049;-73
2021/08/06 06:23:50;;;;;;;2.65;1.00;;;17.20;99.90;;;;;;6295621;22;20022;-73
2021/08/06 06:26:16;;;;;;;4.03;0.80;;;17.40;99.90;;;;;;6297387;22;20023;-73
2021/08/06 06:28:41;;;;;;;2.03;0.80;;;17.40;99.90;;;;;;6296383;22;20029;-73
2021/08/06 06:31:07;;;;;;;3.28;0.93;;;17.50;99.90;;;;;;6296002;22;20074;-74
2021/08/06 06:33:33;;;;;;;2.17;0.98;;;17.60;99.90;;;;;;6297327;22;20480;-74
2021/08/06 06:35:58;;;;;;;2.30;0.88;;;17.80;99.90;;;;;;6296949;22;19995;-74
2021/08/06 06:38:24;;;;;;;2.00;0.75;;;17.90;99.90;;;;;;6296302;22;20414;-74
2021/08/06 06:40:50;;;;;;;2.88;1.05;;;18.10;99.90;;;;;;6297043;22;20003;-74
2021/08/06 06:43:16;;;;;;;3.35;1.17;;;18.30;99.90;;;;;;6297455;22;20007;-74
2021/08/06 06:45:41;;;;;;;2.35;1.00;;;18.40;99.90;;;;;;6296889;22;20003;-73
2021/08/06 06:48:08;;;;;;;6.10;0.93;;;18.60;99.90;;;;;;6295611;22;20087;-74
2021/08/06 06:50:34;;;;;;;5.53;1.92;;;18.70;99.90;;;;;;6293539;22;20093;-75
2021/08/06 06:53:00;;;;;;;3.20;0.82;;;18.90;99.90;;;;;;6295477;22;20477;-75
2021/08/06 06:55:27;;;;;;;3.10;0.98;;;19.20;99.90;;;;;;6296381;22;20299;-75
2021/08/06 06:57:56;;;;;;;3.10;0.90;;;19.30;99.90;;;;;;6295401;22;20003;-75
2021/08/06 07:00:24;;;;;;;2.33;0.85;;;19.60;99.90;;;;;;6296656;22;20657;-75
2021/08/06 07:02:50;;;;;;;1.15;0.65;;;19.80;99.90;;;;;;6296545;22;20004;-75
2021/08/06 07:05:16;;;;;;;2.05;1.13;;;19.90;99.90;;;;;;6297153;22;20004;-76
2021/08/06 07:07:42;;;;;;;2.10;0.95;;;20.10;99.90;;;;;;6295723;22;19999;-77
2021/08/06 07:10:09;;;;;;;3.53;0.90;;;20.20;99.90;;;;;;6296140;22;19999;-75
2021/08/06 07:12:40;;;;;;;3.42;0.80;;;20.40;99.90;;;;;;6297567;22;20033;-78
2021/08/06 07:15:07;;;;;;;2.60;1.10;;;20.60;99.90;;;;;;6296907;22;20031;-78
2021/08/06 07:17:34;;;;;;;2.42;0.77;;;20.80;99.00;;;;;;6294347;22;20082;-78
2021/08/06 07:20:01;;;;;;;1.92;0.82;;;21.80;98.90;;;;;;6296590;22;19999;-78
2021/08/06 07:22:27;;;;;;;2.72;0.90;;;22.80;97.80;;;;;;6295612;22;20006;-78
2021/08/06 07:24:54;;;;;;;2.83;0.90;;;23.80;96.10;;;;;;6295703;22;20031;-79
2021/08/06 07:27:20;;;;;;;6.75;1.10;;;24.80;95.20;;;;;;6295966;22;20302;-78
2021/08/06 07:29:46;;;;;;;3.88;0.85;;;25.30;94.70;;;;;;6295908;22;20520;-78
2021/08/06 07:32:12;;;;;;;3.22;1.10;;;25.90;93.40;;;;;;6296416;22;20000;-78
2021/08/06 07:34:38;;;;;;;4.45;0.80;;;26.00;92.30;;;;;;6295544;22;20018;-77
2021/08/06 07:37:04;;;;;;;4.38;1.10;;;26.50;91.90;;;;;;6266393;22;20084;-78
2021/08/06 07:39:29;;;;;;;4.05;1.02;;;27.00;91.00;;;;;;6293069;22;20503;-78
2021/08/06 07:41:55;;;;;;;2.40;1.00;;;26.70;91.20;;;;;;6295322;22;20035;-78
2021/08/06 07:44:21;;;;;;;4.25;1.05;;;26.90;91.10;;;;;;6296353;22;20441;-78
2021/08/06 07:46:46;;;;;;;4.85;1.40;;;26.70;91.10;;;;;;6292448;22;20365;-78
2021/08/06 07:49:12;;;;;;;2.90;1.02;;;26.80;90.90;;;;;;6296680;22;20007;-77
2021/08/06 07:51:38;;;;;;;1.90;1.02;;;27.50;91.00;;;;;;6296433;22;20025;-76
2021/08/06 07:54:05;;;;;;;2.03;0.82;;;27.60;90.50;;;;;;6295980;22;19999;-77
2021/08/06 07:56:31;;;;;;;4.78;0.90;;;27.70;90.10;;;;;;6292746;22;20000;-75
2021/08/06 07:58:57;;;;;;;3.05;1.10;;;26.00;91.30;;;;;;6292208;22;20007;-75
2021/08/06 08:01:23;;;;;;;4.50;1.20;;;23.40;92.90;;;;;;6292844;22;20429;-76
2021/08/06 08:03:49;;;;;;;4.95;1.15;;;22.30;94.50;;;;;;6295337;22;20008;-77
2021/08/06 08:06:15;;;;;;;3.53;0.90;;;21.70;95.70;;;;;;6296171;22;20007;-77
2021/08/06 08:08:40;;;;;;;3.55;0.95;;;21.40;96.50;;;;;;6296505;22;20003;-77
2021/08/06 08:11:07;;;;;;;2.90;1.20;;;21.30;96.70;;;;;;6296591;22;20064;-76
2021/08/06 08:13:32;;;;;;;5.00;0.93;;;21.10;96.30;;;;;;6295875;22;20406;-77
2021/08/06 08:15:58;;;;;;;2.85;1.13;;;21.00;97.50;;;;;;6295875;22;19999;-77
2021/08/06 08:18:24;;;;;;;3.20;1.65;;;21.00;97.20;;;;;;6298421;22;20004;-77
2021/08/06 08:20:50;;;;;;;4.15;0.88;;;21.00;97.20;;;;;;6298150;22;20002;-77
2021/08/06 08:23:16;;;;;;;2.78;1.15;;;22.30;95.60;;;;;;6296962;22;20022;-77
2021/08/06 08:25:43;;;;;;;2.53;0.93;;;24.00;94.00;;;;;;6298143;22;20014;-76
2021/08/06 08:28:09;;;;;;;3.47;0.85;;;25.20;93.20;;;;;;6298330;22;20003;-77
2021/08/06 08:30:34;;;;;;;2.10;1.00;;;25.90;92.60;;;;;;6298973;22;20603;-77
2021/08/06 08:33:00;;;;;;;2.75;1.10;;;26.10;92.30;;;;;;6300095;22;20029;-75
2021/08/06 08:35:26;;;;;;;3.15;1.15;;;25.90;91.90;;;;;;6297763;22;20478;-73
2021/08/06 08:37:52;;;;;;;2.83;0.93;;;26.10;92.30;;;;;;6302518;22;20011;-77
2021/08/06 08:40:17;;;;;;;3.15;1.25;;;25.20;92.50;;;;;;6303613;22;20014;-75
2021/08/06 08:42:44;;;;;;;6.35;1.10;;;25.20;93.50;;;;;;6298341;22;20003;-75
2021/08/06 08:45:11;;;;;;;4.22;1.10;;;24.30;94.30;;;;;;6299476;22;20011;-76
2021/08/06 08:47:37;;;;;;;2.58;1.00;;;23.80;94.50;;;;;;6300407;22;20003;-75
2021/08/06 08:50:05;;;;;;;3.72;1.02;;;23.20;94.20;;;;;;6273997;22;20007;-76
2021/08/06 08:52:32;;;;;;;5.45;1.52;;;22.90;94.40;;;;;;6302762;22;20007;-76
2021/08/06 08:54:58;;;;;;;2.28;0.98;;;22.80;96.20;;;;;;6298481;22;20003;-78
2021/08/06 08:57:25;;;;;;;5.15;1.67;;;22.90;94.90;;;;;;6298216;22;20003;-79
2021/08/06 08:59:55;;;;;;;1.73;0.88;;;23.10;95.10;;;;;;6298574;22;20034;-78
2021/08/06 09:02:24;;;;;;;4.18;1.13;;;23.00;95.60;;;;;;6298426;22;20007;-78
2021/08/06 09:05:17;;;;;;;3.45;1.20;;;23.10;95.60;;;;;;6298544;22;20072;-77
2021/08/06 09:07:43;;;;;;;2.38;1.10;;;22.50;94.50;;;;;;6299203;22;20003;-76
2021/08/06 09:10:18;;;;;;;3.17;1.33;;;22.70;95.40;;;;;;6298027;22;19999;-75
2021/08/06 09:12:53;;;;;;;3.47;1.05;;;22.80;95.10;;;;;;6297989;22;20039;-75
2021/08/06 09:15:39;;;;;;;4.28;1.15;;;22.90;94.90;;;;;;6298101;22;20003;-77
2021/08/06 09:18:28;;;;;;;3.75;1.15;;;22.70;95.60;;;;;;6298867;22;20023;-78
2021/08/06 09:21:19;;;;;;;2.97;1.45;;;22.90;95.80;;;;;;6304573;22;20425;-81
2021/08/06 09:23:45;;;;;;;8.40;1.50;;;23.00;94.90;;;;;;6298189;22;20015;-77
2021/08/06 09:26:26;;;;;;;2.83;0.88;;;23.20;95.50;;;;;;6299560;22;20037;-76
2021/08/06 09:29:10;;;;;;;2.42;1.00;;;23.10;95.10;;;;;;6297979;22;20090;-76
2021/08/06 09:31:54;;;;;;;8.52;1.65;;;23.30;94.00;;;;;;6297324;22;20064;-77
2021/08/06 09:34:19;;;;;;;;;;;23.50;94.00;;;;;;6298533;22;20332;-77
2021/08/06 09:36:57;;;;;;;4.65;1.25;;;23.60;94.50;;;;;;6297497;22;19934;-77
2021/08/06 09:39:24;;;;;;;3.00;0.93;;;23.50;94.70;;;;;;6270303;22;20003;-77
2021/08/06 09:41:50;;;;;;;2.38;1.00;;;23.40;93.80;;;;;;6297758;22;20029;-77
2021/08/06 09:44:17;;;;;;;1.92;0.90;;;23.50;94.20;;;;;;6303498;22;19999;-78
2021/08/06 09:46:44;;;;;;;4.10;1.20;;;23.90;92.40;;;;;;6305123;22;19999;-77
2021/08/06 09:49:10;;;;;;;2.63;1.15;;;23.90;91.90;;;;;;6305004;22;20003;-76
2021/08/06 09:51:38;;;;;;;2.13;1.00;;;24.20;93.60;;;;;;6300481;22;19999;-76
2021/08/06 09:54:23;;;;;;;3.30;0.77;;;23.90;92.40;;;;;;6298416;22;20030;-77
2021/08/06 09:57:12;;;;;;;4.97;1.25;;;24.10;93.20;;;;;;6299395;22;20409;-78
2021/08/06 09:59:39;;;;;;;1.77;0.90;;;24.40;92.10;;;;;;6296472;22;20003;-76
2021/08/06 10:02:16;;;;;;;3.08;1.10;;;24.40;93.00;;;;;;6297377;22;20034;-76
2021/08/06 10:04:44;;;;;;;2.53;1.10;;;24.50;92.70;;;;;;6297092;22;20007;-77
2021/08/06 10:07:10;;;;;;;1.83;0.68;;;24.40;92.10;;;;;;6298555;22;20491;-77
2021/08/06 10:09:36;;;;;;;2.22;1.10;;;24.20;91.80;;;;;;6299038;22;20329;-77
2021/08/06 10:12:02;;;;;;;3.88;1.00;;;24.30;92.10;;;;;;6300117;22;20030;-76
2021/08/06 10:14:28;;;;;;;2.40;1.02;;;24.30;91.70;;;;;;6301352;22;20003;-79
2021/08/06 10:16:55;;;;;;;4.20;1.00;;;24.60;92.40;;;;;;6301848;22;20066;-77
2021/08/06 10:19:21;;;;;;;3.28;0.80;;;24.90;92.50;;;;;;6300735;22;20010;-77
2021/08/06 10:21:48;;;;;;;2.55;0.88;;;25.00;93.40;;;;;;6297830;22;20003;-77
2021/08/06 10:24:16;;;;;;;3.20;0.90;;;24.90;93.10;;;;;;6300290;22;20583;-79
2021/08/06 10:26:46;;;;;;;4.25;1.35;;;24.70;92.00;;;;;;6298898;22;20578;-77
2021/08/06 10:29:13;;;;;;;2.15;1.02;;;24.70;92.70;;;;;;6295575;22;20072;-78
2021/08/06 10:31:39;;;;;;;5.55;0.82;;;25.40;93.50;;;;;;6296527;22;19999;-78
2021/08/06 10:34:12;;;;;;;3.00;1.20;;;25.70;92.90;;;;;;6297211;22;20064;-79
2021/08/06 10:36:51;;;;;;;2.10;0.93;;;25.70;91.90;;;;;;6296612;22;20003;-77
2021/08/06 10:39:33;;;;;;;3.08;1.27;;;25.60;92.80;;;;;;6296421;22;20086;-77
2021/08/06 10:42:00;;;;;;;2.92;0.90;;;25.50;91.30;;;;;;6295827;22;20007;-75
2021/08/06 10:44:46;;;;;;;4.47;1.00;;;25.10;91.40;;;;;;6296435;22;20022;-76
2021/08/06 10:47:12;;;;;;;2.15;0.80;;;25.00;91.00;;;;;;6296621;22;19995;-76
2021/08/06 10:49:38;;;;;;;2.08;0.82;;;24.80;91.40;;;;;;6296834;22;20089;-77
2021/08/06 10:52:12;;;;;;;2.60;0.95;;;24.90;92.40;;;;;;6296864;22;20080;-78
2021/08/06 10:54:38;;;;;;;2.97;1.05;;;25.30;92.00;;;;;;6297424;22;20125;-77
2021/08/06 10:57:22;;;;;;;2.58;1.00;;;25.60;92.40;;;;;;6297253;22;20391;-77
2021/08/06 10:59:48;;;;;;;2.22;1.10;;;25.90;91.50;;;;;;6297223;22;20003;-79
2021/08/06 11:02:43;;;;;;;5.32;1.10;;;25.70;91.20;;;;;;6298474;22;20052;-77
2021/08/06 11:05:30;;;;;;;3.70;1.40;;;25.70;91.80;;;;;;6297402;22;20011;-76
2021/08/06 11:07:56;;;;;;;4.57;1.10;;;25.90;92.70;;;;;;6296918;22;20003;-75
2021/08/06 11:10:52;;;;;;;5.13;1.10;;;25.80;91.10;;;;;;6296390;22;20003;-76
2021/08/06 11:13:33;;;;;;;2.58;0.90;;;25.80;93.00;;;;;;6265003;22;20004;-77
2021/08/06 11:16:10;;;;;;;1.75;0.95;;;26.20;93.40;;;;;;6297067;22;20057;-76
2021/08/06 11:18:44;;;;;;;2.28;1.17;;;26.30;93.10;;;;;;6298084;22;20326;-76
2021/08/06 11:21:10;;;;;;;2.75;1.13;;;26.20;92.10;;;;;;6297107;22;20069;-76
2021/08/06 11:23:36;;;;;;;1.88;1.17;;;26.00;91.70;;;;;;6297364;22;20019;-76
2021/08/06 11:26:10;;;;;;;3.60;1.00;;;25.90;92.80;;;;;;6297461;22;19999;-76
2021/08/06 11:28:35;;;;;;;7.03;1.15;;;26.30;93.80;;;;;;6296788;22;20003;-76
2021/08/06 11:31:16;;;;;;;5.40;1.20;;;26.40;93.60;;;;;;6300121;22;20003;-76
2021/08/06 11:33:42;;;;;;;3.00;1.10;;;26.40;92.60;;;;;;6296760;22;20006;-76
2021/08/06 11:36:16;;;;;;;3.13;0.95;;;26.30;92.70;;;;;;6296416;22;19999;-76
2021/08/06 11:38:41;;;;;;;2.58;1.20;;;26.30;93.20;;;;;;6268953;22;20038;-76
2021/08/06 11:41:07;;;;;;;2.67;1.15;;;26.20;93.00;;;;;;6296707;22;20388;-76
2021/08/06 11:43:37;;;;;;;3.30;1.25;;;26.10;92.00;;;;;;6296759;22;20437;-76
2021/08/06 11:46:14;;;;;;;3.60;1.55;;;26.20;92.60;;;;;;6296203;22;20298;-76
2021/08/06 11:48:48;;;;;;;3.67;1.27;;;26.50;93.50;;;;;;6296692;22;20007;-75
2021/08/06 11:51:14;;;;;;;4.70;1.45;;;26.20;92.60;;;;;;6298322;22;20009;-77
2021/08/06 11:53:40;;;;;;;2.65;1.48;;;26.60;93.20;;;;;;6298179;22;20074;-77
2021/08/06 11:56:17;;;;;;;4.20;1.50;;;26.80;93.40;;;;;;6298925;22;20021;-77
2021/08/06 11:58:43;;;;;;;2.95;1.45;;;27.00;93.90;;;;;;6297170;22;19999;-76
2021/08/06 12:01:22;;;;;;;5.47;1.50;;;27.30;93.10;;;;;;6298337;22;20004;-76
2021/08/06 12:03:50;;;;;;;4.28;1.88;;;27.40;93.90;;;;;;6298304;22;20011;-76
2021/08/06 12:06:17;;;;;;;2.60;1.52;;;27.40;93.50;;;;;;6298857;22;20034;-77
2021/08/06 12:08:53;;;;;;;3.33;1.70;;;27.30;93.60;;;;;;6298689;22;20003;-77
2021/08/06 12:11:25;;;;;;;2.40;1.40;;;27.40;94.60;;;;;;6298496;22;20007;-77
2021/08/06 12:14:03;;;;;;;8.23;1.85;;;27.40;93.40;;;;;;6298529;22;20650;-76
2021/08/06 12:16:38;;;;;;;6.68;1.90;;;27.50;93.50;;;;;;6298496;22;20014;-76
2021/08/06 12:19:05;;;;;;;4.60;1.98;;;27.30;94.30;;;;;;6298475;22;20003;-77
2021/08/06 12:21:33;;;;;;;3.50;1.75;;;27.40;93.80;;;;;;6298770;22;20003;-77
2021/08/06 12:24:06;;;;;;;4.03;1.73;;;27.30;93.00;;;;;;6298252;22;20015;-77
2021/08/06 12:26:35;;;;;;;4.15;1.77;;;27.40;93.90;;;;;;6298434;22;20437;-76
2021/08/06 12:29:36;;;;;;;5.82;1.60;;;27.50;93.30;;;;;;6270830;22;20719;-76
2021/08/06 12:32:10;;;;;;;3.28;1.50;;;27.50;93.40;;;;;;6216708;22;20011;-76
2021/08/06 12:34:47;;;;;;;4.07;1.90;;;27.60;93.00;;;;;;6298363;22;20010;-75
2021/08/06 12:37:18;;;;;;;3.72;2.42;;;27.70;94.50;;;;;;6299044;22;20456;-75
2021/08/06 12:39:46;;;;;;;4.65;1.50;;;27.60;94.00;;;;;;6298713;22;20003;-75
2021/08/06 12:42:24;;;;;;;4.45;1.70;;;27.90;93.30;;;;;;6297868;22;19999;-75
2021/08/06 12:45:11;;;;;;;5.90;2.10;;;27.90;93.80;;;;;;6298156;22;20038;-75
2021/08/06 12:47:42;;;;;;;3.70;1.80;;;27.80;93.80;;;;;;6298127;22;20004;-75
2021/08/06 12:50:10;;;;;;;3.58;1.80;;;27.80;92.50;;;;;;6298448;22;20313;-76
2021/08/06 12:52:39;;;;;;;3.78;1.50;;;27.80;93.00;;;;;;6297903;22;20006;-75
2021/08/06 12:55:05;;;;;;;4.03;1.80;;;27.70;93.50;;;;;;6298173;22;20082;-76